createdAt,value
2022-12-09T00:00:20.123Z,97487.50
2022-12-09T00:03:23.907Z,97489.28
2022-12-09T00:06:26.775Z,97491.09
2022-12-09T00:09:28.398Z,97492.00
2022-12-09T00:12:34.272Z,97491.03
2022-12-09T00:15:39.815Z,97490.88
2022-12-09T00:18:42.270Z,97490.81
2022-12-09T00:21:43.970Z,97498.66
2022-12-09T00:24:45.624Z,97495.34
2022-12-09T00:27:48.581Z,97498.78
2022-12-09T00:30:50.128Z,97501.31
2022-12-09T00:33:52.312Z,97506.41
2022-12-09T00:36:54.069Z,97505.38
2022-12-09T00:39:55.982Z,97507.94
2022-12-09T00:42:59.292Z,97508.13
2022-12-09T00:46:02.167Z,97514.28
2022-12-09T00:49:04.553Z,97508.97
2022-12-09T00:52:06.426Z,97503.75
2022-12-09T00:55:08.877Z,97505.56
2022-12-09T00:58:12.380Z,97502.13
2022-12-09T01:01:14.227Z,97504.03
2022-12-09T01:04:17.438Z,97501.44
2022-12-09T01:07:19.356Z,97511.88
2022-12-09T01:10:21.816Z,97513.50
2022-12-09T01:13:24.844Z,97517.72
2022-12-09T01:16:27.964Z,97511.59
2022-12-09T01:19:30.427Z,97513.38
2022-12-09T01:22:32.850Z,97515.13
2022-12-09T01:25:34.818Z,97515.09
2022-12-09T01:28:39.010Z,97510.78
2022-12-09T01:31:40.916Z,97516.13
2022-12-09T01:34:43.073Z,97514.31
2022-12-09T01:37:45.007Z,97516.91
2022-12-09T01:40:47.662Z,97522.09
2022-12-09T01:44:04.481Z,97518.63
2022-12-09T01:47:21.373Z,97514.13
2022-12-09T01:50:23.558Z,97512.47
2022-12-09T01:53:28.013Z,97505.50
2022-12-09T01:56:32.353Z,97502.03
2022-12-09T01:59:34.651Z,97503.84
2022-12-09T02:02:38.323Z,97499.56
2022-12-09T02:05:41.210Z,97497.84
2022-12-09T02:08:44.046Z,97499.56
2022-12-09T02:11:51.097Z,97506.53
2022-12-09T02:14:58.368Z,97502.34
2022-12-09T02:18:03.850Z,97498.91
2022-12-09T02:21:08.828Z,97503.22
2022-12-09T02:24:15.358Z,97504.75
2022-12-09T02:27:23.406Z,97493.34
2022-12-09T02:30:32.807Z,97494.25
2022-12-09T02:33:39.853Z,97494.09
2022-12-09T02:36:51.683Z,97497.56
2022-12-09T02:39:55.119Z,97494.22
2022-12-09T02:43:01.842Z,97493.31
2022-12-09T02:46:06.014Z,97496.84
2022-12-09T02:49:08.654Z,97494.31
2022-12-09T02:52:13.932Z,97483.94
2022-12-09T02:55:18.487Z,97484.78
2022-12-09T02:58:20.764Z,97482.09
2022-12-09T03:01:23.926Z,97482.91
2022-12-09T03:04:27.309Z,97479.28
2022-12-09T03:07:36.538Z,97482.72
2022-12-09T03:10:40.747Z,97481.91
2022-12-09T03:13:46.831Z,97476.78
2022-12-09T03:16:51.388Z,97471.53
2022-12-09T03:19:54.868Z,97463.66
2022-12-09T03:22:59.639Z,97477.59
2022-12-09T03:26:02.328Z,97465.38
2022-12-09T03:29:07.016Z,97464.53
2022-12-09T03:32:09.319Z,97465.38
2022-12-09T03:35:12.599Z,97470.63
2022-12-09T03:38:18.602Z,97468.97
2022-12-09T03:41:25.616Z,97468.16
2022-12-09T03:44:30.591Z,97468.97
2022-12-09T03:47:32.748Z,97467.25
2022-12-09T03:50:37.714Z,97458.53
2022-12-09T03:53:43.690Z,97463.78
2022-12-09T03:56:46.277Z,97456.00
2022-12-09T03:59:51.471Z,97459.50
2022-12-09T04:02:53.533Z,97464.69
2022-12-09T04:05:55.464Z,97460.28
2022-12-09T04:09:02.398Z,97458.59
2022-12-09T04:12:04.954Z,97450.69
2022-12-09T04:15:07.394Z,97449.91
2022-12-09T04:18:09.185Z,97446.50
2022-12-09T04:21:13.189Z,97450.03
2022-12-09T04:24:17.388Z,97447.28
2022-12-09T04:27:19.104Z,97442.22
2022-12-09T04:30:22.954Z,97435.19
2022-12-09T04:33:28.914Z,97436.16
2022-12-09T04:36:30.833Z,97434.41
2022-12-09T04:39:34.349Z,97432.81
2022-12-09T04:42:36.685Z,97433.75
2022-12-09T04:45:38.485Z,97435.63
2022-12-09T04:48:41.328Z,97433.97
2022-12-09T04:51:43.020Z,97437.56
2022-12-09T04:54:46.309Z,97434.09
2022-12-09T04:57:48.078Z,97428.84
2022-12-09T05:00:50.021Z,97428.94
2022-12-09T05:03:52.634Z,97423.56
2022-12-09T05:06:54.928Z,97428.00
2022-12-09T05:09:58.877Z,97431.47
2022-12-09T05:13:00.927Z,97439.34
2022-12-09T05:16:06.025Z,97435.00
2022-12-09T05:19:11.450Z,97433.25
2022-12-09T05:22:16.026Z,97433.28
2022-12-09T05:25:19.756Z,97423.56
2022-12-09T05:28:22.183Z,97420.00
2022-12-09T05:31:24.473Z,97426.91
2022-12-09T05:34:27.636Z,97416.31
2022-12-09T05:37:29.750Z,97422.34
2022-12-09T05:40:34.174Z,97417.22
2022-12-09T05:43:37.129Z,97425.06
2022-12-09T05:46:39.669Z,97414.56
2022-12-09T05:49:41.594Z,97420.72
2022-12-09T05:52:43.862Z,97420.72
2022-12-09T05:55:47.291Z,97419.81
2022-12-09T05:58:49.788Z,97420.75
2022-12-09T06:01:52.296Z,97418.09
2022-12-09T06:04:56.197Z,97420.66
2022-12-09T06:08:02.489Z,97425.91
2022-12-09T06:11:11.293Z,97425.88
2022-12-09T06:14:13.275Z,97424.16
2022-12-09T06:17:15.080Z,97425.09
2022-12-09T06:20:18.231Z,97423.47
2022-12-09T06:23:20.190Z,97420.84
2022-12-09T06:26:28.459Z,97433.19
2022-12-09T06:29:30.735Z,97418.41
2022-12-09T06:32:32.953Z,97421.84
2022-12-09T06:35:34.844Z,97424.47
2022-12-09T06:38:37.125Z,97417.44
2022-12-09T06:41:42.227Z,97423.50
2022-12-09T06:44:44.391Z,97420.97
2022-12-09T06:47:46.699Z,97425.34
2022-12-09T06:50:50.380Z,97419.34
2022-12-09T06:53:52.174Z,97419.47
2022-12-09T06:56:55.699Z,97421.09
2022-12-09T06:59:57.607Z,97419.50
2022-12-09T07:02:59.735Z,97422.13
2022-12-09T07:06:03.529Z,97415.13
2022-12-09T07:09:07.181Z,97420.31
2022-12-09T07:12:10.485Z,97417.66
2022-12-09T07:15:13.674Z,97425.56
2022-12-09T07:18:16.074Z,97432.38
2022-12-09T07:21:19.020Z,97434.00
2022-12-09T07:24:21.265Z,97440.97
2022-12-09T07:27:24.644Z,97434.81
2022-12-09T07:30:26.970Z,97446.19
2022-12-09T07:33:29.605Z,97435.69
2022-12-09T07:36:33.014Z,97435.84
2022-12-09T07:39:35.437Z,97441.84
2022-12-09T07:42:38.642Z,97446.09
2022-12-09T07:45:40.988Z,97444.31
2022-12-09T07:48:43.465Z,97442.59
2022-12-09T07:51:45.375Z,97446.94
2022-12-09T07:54:47.101Z,97450.47
2022-12-09T07:57:50.361Z,97445.28
2022-12-09T08:00:52.137Z,97446.91
2022-12-09T08:03:55.504Z,97447.84
2022-12-09T08:06:57.889Z,97448.97
2022-12-09T08:10:00.183Z,97448.94
2022-12-09T08:13:03.830Z,97450.59
2022-12-09T08:16:07.055Z,97453.34
2022-12-09T08:19:09.139Z,97451.59
2022-12-09T08:22:11.223Z,97444.59
2022-12-09T08:25:13.632Z,97444.66
2022-12-09T08:28:19.392Z,97452.75
2022-12-09T08:31:24.756Z,97449.22
2022-12-09T08:34:27.025Z,97451.72
2022-12-09T08:37:29.214Z,97458.69
2022-12-09T08:40:31.009Z,97453.44
2022-12-09T08:43:34.403Z,97461.22
2022-12-09T08:46:37.237Z,97457.63
2022-12-09T08:49:39.402Z,97450.56
2022-12-09T08:52:42.221Z,97461.66
2022-12-09T08:55:44.322Z,97458.03
2022-12-09T08:58:48.715Z,97451.84
2022-12-09T09:01:50.544Z,97458.69
2022-12-09T09:04:52.812Z,97450.75
2022-12-09T09:07:55.084Z,97456.81
2022-12-09T09:10:57.599Z,97462.06
2022-12-09T09:14:04.959Z,97460.22
2022-12-09T09:17:06.792Z,97459.28
2022-12-09T09:20:09.880Z,97466.25
2022-12-09T09:23:11.895Z,97467.91
2022-12-09T09:26:14.648Z,97470.59
2022-12-09T09:29:19.184Z,97465.16
2022-12-09T09:32:21.393Z,97466.94
2022-12-09T09:35:23.439Z,97461.69
2022-12-09T09:38:26.400Z,97461.56
2022-12-09T09:41:42.678Z,97457.19
2022-12-09T09:44:47.798Z,97467.59
2022-12-09T09:47:51.339Z,97461.50
2022-12-09T09:51:00.204Z,97458.91
2022-12-09T09:54:06.630Z,97460.53
2022-12-09T09:57:13.280Z,97461.34
2022-12-09T10:00:22.879Z,97461.25
2022-12-09T10:03:32.644Z,97459.53
2022-12-09T10:06:37.427Z,97450.84
2022-12-09T10:09:43.412Z,97458.72
2022-12-09T10:12:51.719Z,97449.88
2022-12-09T10:16:01.749Z,97454.91
2022-12-09T10:19:09.101Z,97450.66
2022-12-09T10:22:13.685Z,97449.88
2022-12-09T10:25:18.566Z,97446.34
2022-12-09T10:28:22.211Z,97452.56
2022-12-09T10:31:27.651Z,97441.34
2022-12-09T10:34:30.278Z,97439.44
2022-12-09T10:37:33.135Z,97441.00
2022-12-09T10:40:36.927Z,97440.19
2022-12-09T10:43:41.263Z,97440.34
2022-12-09T10:46:44.940Z,97436.81
2022-12-09T10:49:48.649Z,97437.94
2022-12-09T10:52:50.750Z,97436.22
2022-12-09T10:55:53.972Z,97437.81
2022-12-09T10:59:08.979Z,97436.09
2022-12-09T11:02:20.661Z,97443.16
2022-12-09T11:05:27.891Z,97439.66
2022-12-09T11:08:32.173Z,97431.75
2022-12-09T11:11:42.910Z,97437.81
2022-12-09T11:14:49.903Z,97436.81
2022-12-09T11:17:56.855Z,97436.00
2022-12-09T11:21:00.009Z,97437.66
2022-12-09T11:24:03.504Z,97439.53
2022-12-09T11:27:22.405Z,97440.47
2022-12-09T11:30:26.417Z,97435.91
2022-12-09T11:33:31.530Z,97434.03
2022-12-09T11:36:36.810Z,97434.69
2022-12-09T11:39:40.903Z,97439.91
2022-12-09T11:42:42.675Z,97432.94
2022-12-09T11:45:45.663Z,97425.91
2022-12-09T11:48:52.345Z,97424.25
2022-12-09T11:52:01.998Z,97421.56
2022-12-09T11:55:13.351Z,97418.28
2022-12-09T11:58:17.215Z,97417.56
2022-12-09T12:01:21.307Z,97424.31
2022-12-09T12:04:26.351Z,97419.91
2022-12-09T12:07:32.552Z,97415.66
2022-12-09T12:10:37.435Z,97420.09
2022-12-09T12:13:42.371Z,97415.19
2022-12-09T12:16:48.133Z,97412.47
2022-12-09T12:19:55.042Z,97424.69
2022-12-09T12:23:07.589Z,97417.84
2022-12-09T12:26:12.778Z,97418.66
2022-12-09T12:29:21.968Z,97415.09
2022-12-09T12:32:42.029Z,97412.50
2022-12-09T12:35:51.731Z,97403.00
2022-12-09T12:39:03.365Z,97406.47
2022-12-09T12:42:12.341Z,97408.81
2022-12-09T12:45:35.326Z,97404.34
2022-12-09T12:48:43.898Z,97408.59
2022-12-09T12:51:54.783Z,97407.06
2022-12-09T12:54:59.964Z,97399.19
2022-12-09T12:58:06.070Z,97392.13
2022-12-09T13:01:12.894Z,97394.91
2022-12-09T13:04:20.715Z,97392.38
2022-12-09T13:07:28.041Z,97393.47
2022-12-09T13:10:32.957Z,97391.75
2022-12-09T13:13:38.275Z,97393.66
2022-12-09T13:16:41.757Z,97389.13
2022-12-09T13:19:45.535Z,97392.31
2022-12-09T13:22:51.741Z,97394.00
2022-12-09T13:25:59.125Z,97387.25
2022-12-09T13:29:05.094Z,97388.84
2022-12-09T13:32:13.119Z,97390.44
2022-12-09T13:35:18.935Z,97384.06
2022-12-09T13:38:26.103Z,97380.81
2022-12-09T13:42:00.404Z,97373.03
2022-12-09T13:45:05.591Z,97378.22
2022-12-09T13:48:27.695Z,97375.84
2022-12-09T13:51:43.093Z,97377.59
2022-12-09T13:54:48.455Z,97382.06
2022-12-09T13:57:53.449Z,97383.06
2022-12-09T14:01:04.736Z,97383.00
2022-12-09T14:04:11.167Z,97382.19
2022-12-09T14:07:19.277Z,97378.66
2022-12-09T14:10:35.874Z,97390.75
2022-12-09T14:13:38.889Z,97384.44
2022-12-09T14:16:40.662Z,97380.03
2022-12-09T14:19:51.615Z,97383.56
2022-12-09T14:23:17.336Z,97388.00
2022-12-09T14:26:33.724Z,97380.22
2022-12-09T14:29:53.849Z,97380.38
2022-12-09T14:32:56.598Z,97379.63
2022-12-09T14:36:03.756Z,97383.19
2022-12-09T14:39:24.388Z,97375.38
2022-12-09T14:42:31.737Z,97378.81
2022-12-09T14:45:42.649Z,97378.00
2022-12-09T14:48:47.040Z,97376.28
2022-12-09T14:51:49.695Z,97381.66
2022-12-09T14:54:52.645Z,97378.28
2022-12-09T14:57:55.819Z,97384.56
2022-12-09T15:01:02.848Z,97388.16
2022-12-09T15:04:04.648Z,97384.66
2022-12-09T15:07:07.717Z,97388.19
2022-12-09T15:10:18.041Z,97386.59
2022-12-09T15:13:19.892Z,97382.25
2022-12-09T15:16:24.564Z,97391.00
2022-12-09T15:19:59.321Z,97384.88
2022-12-09T15:22:52.897Z,97393.56
2022-12-09T15:25:56.026Z,97395.28
2022-12-09T15:29:05.244Z,97395.28
2022-12-09T15:32:18.752Z,97399.72
2022-12-09T15:35:22.312Z,97393.56
2022-12-09T15:38:25.675Z,97399.59
2022-12-09T15:41:48.180Z,97401.28
2022-12-09T15:44:53.590Z,97401.28
2022-12-09T15:47:58.069Z,97400.22
2022-12-09T15:51:01.782Z,97406.41
2022-12-09T15:54:07.770Z,97416.19
2022-12-09T15:57:11.099Z,97413.53
2022-12-09T16:00:13.911Z,97401.34
2022-12-09T16:03:18.879Z,97403.94
2022-12-09T16:06:24.985Z,97409.19
2022-12-09T16:09:27.108Z,97407.66
2022-12-09T16:12:29.776Z,97412.19
2022-12-09T16:15:40.251Z,97408.69
2022-12-09T16:18:52.751Z,97411.28
2022-12-09T16:21:56.630Z,97411.38
2022-12-09T16:25:20.379Z,97411.47
2022-12-09T16:28:23.482Z,97413.38
2022-12-09T16:31:25.344Z,97413.41
2022-12-09T16:34:28.741Z,97417.03
2022-12-09T16:37:35.745Z,97411.84
2022-12-09T16:41:01.521Z,97402.31
2022-12-09T16:44:17.668Z,97411.03
2022-12-09T16:47:22.559Z,97405.91
2022-12-09T16:50:28.618Z,97404.19
2022-12-09T16:53:31.361Z,97406.91
2022-12-09T16:56:33.186Z,97404.31
2022-12-09T16:59:38.041Z,97407.97
2022-12-09T17:02:42.958Z,97415.06
2022-12-09T17:05:47.946Z,97414.41
2022-12-09T17:08:50.119Z,97413.63
2022-12-09T17:11:51.917Z,97414.59
2022-12-09T17:14:54.228Z,97423.34
2022-12-09T17:17:56.011Z,97412.06
2022-12-09T17:21:02.680Z,97419.16
2022-12-09T17:24:04.597Z,97415.63
2022-12-09T17:27:06.442Z,97425.22
2022-12-09T17:30:10.186Z,97422.59
2022-12-09T17:33:11.731Z,97422.69
2022-12-09T17:36:15.629Z,97420.97
2022-12-09T17:39:17.492Z,97422.69
2022-12-09T17:42:19.161Z,97412.31
2022-12-09T17:45:20.843Z,97420.31
2022-12-09T17:48:22.575Z,97422.09
2022-12-09T17:51:28.647Z,97427.22
2022-12-09T17:54:32.654Z,97430.72
2022-12-09T17:57:34.250Z,97436.16
2022-12-09T18:00:38.052Z,97432.78
2022-12-09T18:03:55.601Z,97434.66
2022-12-09T18:07:01.874Z,97431.19
2022-12-09T18:10:03.980Z,97436.34
2022-12-09T18:13:05.620Z,97442.38
2022-12-09T18:16:08.049Z,97441.56
2022-12-09T18:19:12.956Z,97440.88
2022-12-09T18:22:15.940Z,97443.63
2022-12-09T18:25:17.756Z,97444.59
2022-12-09T18:28:19.736Z,97443.72
2022-12-09T18:31:22.074Z,97442.91
2022-12-09T18:34:24.130Z,97448.06
2022-12-09T18:37:27.215Z,97448.06
2022-12-09T18:40:29.008Z,97444.53
2022-12-09T18:43:31.691Z,97450.72
2022-12-09T18:46:34.967Z,97441.09
2022-12-09T18:49:37.066Z,97452.44
2022-12-09T18:52:41.251Z,97459.50
2022-12-09T18:55:43.186Z,97451.81
2022-12-09T19:02:08.829Z,97456.97
2022-12-09T19:05:10.530Z,97457.97
2022-12-09T19:08:13.654Z,97463.34
2022-12-09T19:11:15.503Z,97468.66
2022-12-09T19:14:17.804Z,97458.22
2022-12-09T19:17:20.209Z,97466.09
2022-12-09T19:20:24.520Z,97468.72
2022-12-09T19:23:27.471Z,97467.88
2022-12-09T19:26:29.991Z,97456.69
2022-12-09T19:29:31.580Z,97458.44
2022-12-09T19:32:53.936Z,97459.41
2022-12-09T19:35:54.928Z,97456.78
2022-12-09T19:38:58.940Z,97455.97
2022-12-09T19:42:01.441Z,97459.47
2022-12-09T19:45:06.453Z,97466.41
2022-12-09T19:48:10.915Z,97465.53
2022-12-09T19:51:13.252Z,97470.78
2022-12-09T19:54:16.674Z,97468.13
2022-12-09T19:57:18.455Z,97471.53
2022-12-09T20:00:20.485Z,97477.53
2022-12-09T20:03:22.188Z,97476.72
2022-12-09T20:06:24.166Z,97475.97
2022-12-09T20:09:27.299Z,97472.56
2022-12-09T20:12:29.013Z,97472.66
2022-12-09T20:15:30.775Z,97473.53
2022-12-09T20:18:32.348Z,97489.13
2022-12-09T20:21:35.217Z,97481.28
2022-12-09T20:24:38.193Z,97489.25
2022-12-09T20:27:40.227Z,97487.53
2022-12-09T20:30:45.036Z,97480.44
2022-12-09T20:33:47.000Z,97478.63
2022-12-09T20:36:48.664Z,97474.19
2022-12-09T20:39:51.690Z,97472.47
2022-12-09T20:42:53.578Z,97478.69
2022-12-09T20:45:55.150Z,97486.50
2022-12-09T20:48:57.414Z,97490.00
2022-12-09T20:51:59.160Z,97487.41
2022-12-09T20:55:02.449Z,97496.97
2022-12-09T20:58:04.220Z,97498.81
2022-12-09T21:01:06.852Z,97508.50
2022-12-09T21:04:08.550Z,97506.84
2022-12-09T21:07:10.309Z,97512.09
2022-12-09T21:10:13.345Z,97513.91
2022-12-09T21:13:14.934Z,97517.34
2022-12-09T21:16:20.139Z,97514.78
2022-12-09T21:19:27.264Z,97511.34
2022-12-09T21:22:31.586Z,97521.81
2022-12-09T21:25:34.701Z,97518.22
2022-12-09T21:28:37.025Z,97512.09
2022-12-09T21:31:42.395Z,97517.31
2022-12-09T21:34:44.077Z,97523.38
2022-12-09T21:37:45.671Z,97525.09
2022-12-09T21:40:48.693Z,97517.28
2022-12-09T21:43:50.453Z,97519.94
2022-12-09T21:46:52.095Z,97521.66
2022-12-09T21:49:53.798Z,97522.63
2022-12-09T21:52:55.426Z,97525.28
2022-12-09T21:56:02.810Z,97535.78
2022-12-09T21:59:05.463Z,97534.94
2022-12-09T22:02:08.189Z,97536.69
2022-12-09T22:05:10.253Z,97540.16
2022-12-09T22:08:12.000Z,97543.56
2022-12-09T22:11:16.217Z,97543.56
2022-12-09T22:14:17.818Z,97545.28
2022-12-09T22:17:19.488Z,97547.88
2022-12-09T22:21:01.184Z,97545.16
2022-12-09T22:23:43.274Z,97543.31
2022-12-09T22:26:47.369Z,97540.78
2022-12-09T22:29:49.052Z,97543.41
2022-12-09T22:32:51.135Z,97544.25
2022-12-09T22:35:52.865Z,97543.28
2022-12-09T22:38:54.752Z,97541.53
2022-12-09T22:41:58.116Z,97538.91
2022-12-09T22:44:59.940Z,97538.88
2022-12-09T22:48:01.663Z,97538.75
2022-12-09T22:51:04.489Z,97545.53
2022-12-09T22:54:08.172Z,97543.75
2022-12-09T22:57:11.358Z,97535.03
2022-12-09T23:00:13.603Z,97530.72
2022-12-09T23:03:15.206Z,97537.69
2022-12-09T23:06:17.032Z,97538.47
2022-12-09T23:09:19.669Z,97543.56
2022-12-09T23:12:22.734Z,97540.94
2022-12-09T23:15:24.608Z,97546.16
2022-12-09T23:18:26.201Z,97545.31
2022-12-09T23:21:29.337Z,97545.31
2022-12-09T23:24:31.785Z,97544.41
2022-12-09T23:27:34.821Z,97543.50
2022-12-09T23:30:36.531Z,97537.41
2022-12-09T23:33:38.840Z,97533.91
2022-12-09T23:36:43.283Z,97534.75
2022-12-09T23:39:45.286Z,97537.28
2022-12-09T23:42:48.426Z,97538.03
2022-12-09T23:45:50.142Z,97539.69
2022-12-09T23:48:52.417Z,97540.44
2022-12-09T23:51:54.325Z,97534.38
2022-12-09T23:55:01.007Z,97535.19
2022-12-09T23:58:07.037Z,97537.81
